Time;durP1;ratioP1;P1;durP2;ratioP2;P2;SDS_P1;SDS_P2;PMS_P1;PMS_P2;Temp;Humidity;BMP_temperature;BMP_pressure;BME280_temperature;BME280_humidity;BME280_pressure;Samples;Min_cycle;Max_cycle;Signal;HPM_P1;HPM_P2
2024/04/15 00:01:52;;;;;;;6.97;1.00;;;10.80;99.90;;;;;;5490214;26;20012;-51
2024/04/15 00:04:17;;;;;;;7.10;1.00;;;10.80;99.90;;;;;;5490183;26;20005;-51
2024/04/15 00:06:43;;;;;;;9.85;0.82;;;10.80;99.90;;;;;;5490179;26;19994;-52
2024/04/15 00:09:09;;;;;;;2.03;0.80;;;10.80;99.90;;;;;;5490490;26;20008;-53
2024/04/15 00:11:34;;;;;;;4.35;0.90;;;10.80;99.90;;;;;;5488536;26;20063;-51
2024/04/15 00:14:00;;;;;;;1.85;0.98;;;10.80;99.90;;;;;;5489835;26;20389;-54
2024/04/15 00:16:26;;;;;;;3.83;1.00;;;10.80;99.90;;;;;;5488966;26;20070;-53
2024/04/15 00:18:51;;;;;;;4.45;0.70;;;10.80;99.90;;;;;;5487160;26;20006;-53
2024/04/15 00:21:17;;;;;;;2.67;0.70;;;10.70;99.90;;;;;;5456794;26;20006;-52
2024/04/15 00:23:43;;;;;;;2.85;1.08;;;10.70;99.90;;;;;;5453460;26;20003;-48
2024/04/15 00:26:09;;;;;;;4.07;1.30;;;10.70;99.90;;;;;;5459634;26;20474;-55
2024/04/15 00:28:35;;;;;;;2.83;0.77;;;10.70;99.90;;;;;;5518903;26;20342;-51
2024/04/15 00:31:00;;;;;;;4.00;0.80;;;10.70;99.90;;;;;;5489566;26;19994;-49
2024/04/15 00:33:26;;;;;;;6.82;1.65;;;10.70;99.90;;;;;;5488883;26;20466;-53
2024/04/15 00:35:52;;;;;;;9.30;1.10;;;10.70;99.90;;;;;;5489701;26;20070;-51
2024/04/15 00:38:17;;;;;;;5.82;1.23;;;10.70;99.90;;;;;;5490061;26;19998;-52
2024/04/15 00:40:43;;;;;;;3.47;0.77;;;10.70;99.90;;;;;;5488708;26;19994;-52
2024/04/15 00:43:09;;;;;;;2.08;0.50;;;10.70;99.90;;;;;;5460059;26;20467;-51
2024/04/15 00:45:35;;;;;;;10.55;1.25;;;10.70;99.90;;;;;;5489861;26;20458;-53
2024/04/15 00:48:02;;;;;;;5.03;0.82;;;10.70;99.90;;;;;;5486462;26;20001;-50
2024/04/15 00:50:30;;;;;;;5.30;0.80;;;10.70;99.90;;;;;;5457676;26;19999;-54
2024/04/15 00:52:57;;;;;;;5.85;0.95;;;10.70;99.90;;;;;;5475800;26;19994;-59
2024/04/15 00:55:25;;;;;;;5.82;1.05;;;10.70;99.90;;;;;;5487702;26;20038;-52
2024/04/15 00:57:51;;;;;;;8.48;1.33;;;10.70;99.90;;;;;;5489466;26;20013;-65
2024/04/15 01:00:18;;;;;;;1.65;0.63;;;10.80;99.90;;;;;;5489223;26;19998;-52
2024/04/15 01:02:45;;;;;;;5.22;0.93;;;10.70;99.90;;;;;;5488871;26;20006;-53
2024/04/15 01:05:10;;;;;;;5.93;1.20;;;10.80;99.90;;;;;;5486918;26;19998;-55
2024/04/15 01:07:37;;;;;;;6.57;0.90;;;10.80;99.90;;;;;;5454933;26;20009;-48
2024/04/15 01:10:04;;;;;;;5.00;0.75;;;10.80;99.90;;;;;;5450882;26;20339;-53
2024/04/15 01:12:30;;;;;;;1.33;0.52;;;10.80;99.90;;;;;;5452711;26;20035;-53
2024/04/15 01:14:56;;;;;;;2.72;0.77;;;10.80;99.90;;;;;;5452854;26;20010;-53
2024/04/15 01:17:22;;;;;;;4.20;1.35;;;10.80;99.90;;;;;;5452788;26;19998;-52
2024/04/15 01:19:48;;;;;;;4.20;1.73;;;10.80;99.90;;;;;;5452503;26;20339;-53
2024/04/15 01:22:23;;;;;;;2.58;1.10;;;10.80;99.90;;;;;;5484145;26;20005;-51
2024/04/15 01:24:49;;;;;;;5.97;1.42;;;10.80;99.90;;;;;;5450935;26;20006;-38
2024/04/15 01:27:16;;;;;;;2.70;1.27;;;10.80;99.90;;;;;;5452537;26;20037;-39
2024/04/15 01:29:41;;;;;;;3.40;1.17;;;10.80;99.90;;;;;;5452916;26;20327;-37
2024/04/15 01:32:07;;;;;;;6.45;1.20;;;10.80;99.90;;;;;;5452705;26;20006;-38
2024/04/15 01:34:33;;;;;;;3.97;1.00;;;10.80;99.90;;;;;;5452807;26;20339;-37
2024/04/15 01:36:59;;;;;;;6.38;1.05;;;10.70;99.90;;;;;;5452432;26;20064;-39
2024/04/15 01:39:25;;;;;;;5.97;1.30;;;10.70;99.90;;;;;;5484870;26;20065;-56
2024/04/15 01:41:51;;;;;;;4.47;1.27;;;10.70;99.90;;;;;;5452737;26;19998;-37
2024/04/15 01:44:16;;;;;;;4.78;0.88;;;10.70;99.90;;;;;;5451005;26;20075;-40
2024/04/15 01:46:42;;;;;;;10.40;2.20;;;10.70;99.90;;;;;;5462916;26;19994;-38
2024/04/15 01:49:08;;;;;;;4.18;1.02;;;10.70;99.90;;;;;;5488822;26;19994;-46
2024/04/15 01:51:33;;;;;;;5.22;1.77;;;10.70;99.90;;;;;;5486974;26;20439;-38
2024/04/15 01:53:59;;;;;;;8.48;2.17;;;10.70;99.90;;;;;;5488703;26;20445;-38
2024/04/15 01:56:24;;;;;;;7.72;1.40;;;10.70;99.90;;;;;;5468847;26;20013;-39
2024/04/15 01:58:50;;;;;;;4.82;1.05;;;10.70;99.90;;;;;;5488529;26;19994;-39
2024/04/15 02:01:16;;;;;;;5.57;1.05;;;10.70;99.90;;;;;;5487026;26;20066;-38
2024/04/15 02:03:43;;;;;;;5.65;1.45;;;10.60;99.90;;;;;;5456245;26;20012;-38
2024/04/15 02:06:08;;;;;;;9.63;1.75;;;10.60;99.90;;;;;;5488557;26;20459;-39
2024/04/15 02:08:34;;;;;;;5.65;1.60;;;10.60;99.90;;;;;;5486935;26;20059;-53
2024/04/15 02:11:00;;;;;;;6.50;1.30;;;10.50;99.90;;;;;;5488188;26;20319;-54
2024/04/15 02:13:26;;;;;;;2.88;1.30;;;10.50;99.90;;;;;;5486838;26;19998;-50
2024/04/15 02:15:51;;;;;;;3.70;1.33;;;10.50;99.90;;;;;;5451788;26;20068;-50
2024/04/15 02:18:17;;;;;;;4.82;0.93;;;10.60;99.90;;;;;;5451818;26;20026;-50
2024/04/15 02:20:43;;;;;;;10.15;1.27;;;10.60;99.90;;;;;;5451417;26;20023;-51
2024/04/15 02:23:08;;;;;;;4.53;1.50;;;10.60;99.90;;;;;;5480549;26;20021;-52
2024/04/15 02:25:34;;;;;;;7.32;1.90;;;10.50;99.90;;;;;;5487911;26;20012;-52
2024/04/15 02:28:00;;;;;;;12.55;1.67;;;10.50;99.90;;;;;;5487898;26;20021;-54
2024/04/15 02:30:26;;;;;;;7.45;1.33;;;10.50;99.90;;;;;;5486136;26;19995;-52
2024/04/15 02:32:51;;;;;;;7.38;1.02;;;10.50;99.90;;;;;;5451911;26;20002;-51
2024/04/15 02:35:17;;;;;;;8.02;1.25;;;10.50;99.90;;;;;;5451404;26;20003;-52
2024/04/15 02:37:43;;;;;;;10.00;1.85;;;10.50;99.90;;;;;;5487790;26;19998;-52
2024/04/15 02:40:09;;;;;;;6.25;1.15;;;10.50;99.90;;;;;;5487603;26;20005;-53
2024/04/15 02:42:34;;;;;;;2.33;1.30;;;10.50;99.90;;;;;;5487635;26;19994;-53
2024/04/15 02:45:00;;;;;;;5.55;1.30;;;10.40;99.90;;;;;;5487590;26;20058;-55
2024/04/15 02:47:26;;;;;;;8.95;1.80;;;10.40;99.90;;;;;;5453520;26;19995;-52
2024/04/15 02:49:51;;;;;;;7.53;1.60;;;10.40;99.90;;;;;;5451072;26;20461;-54
2024/04/15 02:52:17;;;;;;;12.68;1.42;;;10.40;99.90;;;;;;5451482;26;20011;-53
2024/04/15 02:54:42;;;;;;;1.63;0.90;;;10.30;99.90;;;;;;5451308;26;19999;-52
2024/04/15 02:57:08;;;;;;;12.80;1.88;;;10.30;99.90;;;;;;5449359;26;20010;-53
2024/04/15 02:59:34;;;;;;;9.45;1.73;;;10.20;99.90;;;;;;5451035;26;20002;-53
2024/04/15 03:02:00;;;;;;;4.38;1.38;;;10.20;99.90;;;;;;5450929;26;20002;-53
2024/04/15 03:04:26;;;;;;;10.18;2.05;;;10.20;99.90;;;;;;5485765;26;19998;-53
2024/04/15 03:06:54;;;;;;;8.68;1.60;;;10.20;99.90;;;;;;5490956;26;20005;-37
2024/04/15 03:09:22;;;;;;;7.53;1.88;;;10.30;99.90;;;;;;5488854;26;20462;-37
2024/04/15 03:11:48;;;;;;;6.25;1.15;;;10.30;99.90;;;;;;5490706;26;20080;-52
2024/04/15 03:14:14;;;;;;;2.55;1.15;;;10.40;99.90;;;;;;5490348;26;20457;-50
2024/04/15 03:16:42;;;;;;;3.83;1.27;;;10.40;99.90;;;;;;5490519;26;19994;-39
2024/04/15 03:19:08;;;;;;;5.43;1.23;;;10.30;99.90;;;;;;5487725;26;20044;-53
2024/04/15 03:21:34;;;;;;;3.00;1.55;;;10.30;99.90;;;;;;5484833;26;20030;-52
2024/04/15 03:23:59;;;;;;;11.50;1.60;;;10.20;99.90;;;;;;5454196;26;19995;-48
2024/04/15 03:26:25;;;;;;;9.05;1.50;;;10.30;99.90;;;;;;5481401;26;20458;-54
2024/04/15 03:28:51;;;;;;;3.50;2.10;;;10.30;99.90;;;;;;5490549;26;19994;-52
2024/04/15 03:31:16;;;;;;;11.50;2.45;;;10.30;99.90;;;;;;5490395;26;20009;-53
2024/04/15 03:33:42;;;;;;;6.20;1.65;;;10.30;99.90;;;;;;5482646;26;20089;-52
2024/04/15 03:36:08;;;;;;;17.92;2.35;;;10.30;99.90;;;;;;5454595;26;20483;-41
2024/04/15 03:38:33;;;;;;;8.73;1.95;;;10.40;99.90;;;;;;5486793;26;20036;-39
2024/04/15 03:40:59;;;;;;;12.57;2.58;;;10.30;99.90;;;;;;5453744;26;19994;-39
2024/04/15 03:43:25;;;;;;;10.68;2.00;;;10.40;99.90;;;;;;5453802;26;20006;-50
2024/04/15 03:45:51;;;;;;;9.10;2.05;;;10.40;99.90;;;;;;5453933;26;19995;-51
2024/04/15 03:48:16;;;;;;;9.65;2.10;;;10.30;99.90;;;;;;5487950;26;20066;-52
2024/04/15 03:50:42;;;;;;;9.45;1.92;;;10.40;99.90;;;;;;5488159;26;19994;-51
2024/04/15 03:53:08;;;;;;;7.22;2.03;;;10.40;99.90;;;;;;5489621;26;19995;-46
2024/04/15 03:55:33;;;;;;;5.53;1.60;;;10.40;99.90;;;;;;5486577;26;20339;-50
2024/04/15 03:57:59;;;;;;;6.53;2.75;;;10.40;99.90;;;;;;5453720;26;20010;-52
2024/04/15 04:00:25;;;;;;;7.45;2.03;;;10.40;99.90;;;;;;5453443;26;19999;-50
2024/04/15 04:02:51;;;;;;;7.28;1.85;;;10.40;99.90;;;;;;5453431;26;20014;-53
2024/04/15 04:05:16;;;;;;;13.93;2.55;;;10.30;99.90;;;;;;5453421;26;20414;-51
2024/04/15 04:07:42;;;;;;;12.50;1.95;;;10.30;99.90;;;;;;5453715;26;20008;-53
2024/04/15 04:10:07;;;;;;;6.43;1.92;;;10.30;99.90;;;;;;5454221;26;20003;-51
2024/04/15 04:12:33;;;;;;;9.88;2.33;;;10.30;99.90;;;;;;5487487;26;20034;-57
2024/04/15 04:14:59;;;;;;;5.47;2.45;;;10.30;99.90;;;;;;5489003;26;20002;-54
2024/04/15 04:17:24;;;;;;;11.00;2.95;;;10.30;99.90;;;;;;5487265;26;19998;-53
2024/04/15 04:19:50;;;;;;;9.68;2.25;;;10.40;99.90;;;;;;5489568;26;20446;-52
2024/04/15 04:22:15;;;;;;;6.35;1.65;;;10.40;99.90;;;;;;5489416;26;20396;-54
2024/04/15 04:24:41;;;;;;;12.25;2.28;;;10.30;99.90;;;;;;5488173;26;20009;-71
2024/04/15 04:27:07;;;;;;;16.45;1.90;;;10.30;99.90;;;;;;5489939;26;20002;-47
2024/04/15 04:29:33;;;;;;;11.93;3.28;;;10.30;99.90;;;;;;5486406;26;20001;-40
2024/04/15 04:31:59;;;;;;;9.82;1.83;;;10.30;99.90;;;;;;5468403;26;20455;-41
2024/04/15 04:34:24;;;;;;;5.47;2.03;;;10.30;99.90;;;;;;5489463;26;20006;-39
2024/04/15 04:36:51;;;;;;;3.50;2.03;;;10.30;99.90;;;;;;5487679;26;20450;-45
2024/04/15 04:39:17;;;;;;;10.88;2.65;;;10.30;99.90;;;;;;5489417;26;20468;-39
2024/04/15 04:41:43;;;;;;;12.88;2.78;;;10.30;99.90;;;;;;5489192;26;20001;-40
2024/04/15 04:44:08;;;;;;;11.68;2.47;;;10.20;99.90;;;;;;5489315;26;20078;-52
2024/04/15 04:46:34;;;;;;;9.40;2.75;;;10.30;99.90;;;;;;5485773;26;20450;-53
2024/04/15 04:49:00;;;;;;;11.27;2.35;;;10.30;99.90;;;;;;5453011;26;19999;-39
2024/04/15 04:51:25;;;;;;;7.68;1.92;;;10.30;99.90;;;;;;5453100;26;19995;-38
2024/04/15 04:53:51;;;;;;;8.00;2.25;;;10.30;99.90;;;;;;5452939;26;19998;-38
2024/04/15 04:56:17;;;;;;;13.05;2.47;;;10.30;99.90;;;;;;5468718;26;20470;-37
2024/04/15 04:58:44;;;;;;;3.58;1.90;;;10.30;99.90;;;;;;5489228;26;20480;-39
2024/04/15 05:01:11;;;;;;;7.97;2.17;;;10.30;99.90;;;;;;5488578;26;20454;-39
2024/04/15 05:03:39;;;;;;;6.13;2.97;;;10.40;99.90;;;;;;5484401;26;20492;-42
2024/04/15 05:06:09;;;;;;;10.35;2.22;;;10.40;99.90;;;;;;5452632;26;20009;-48
2024/04/15 05:08:35;;;;;;;16.20;2.65;;;10.40;99.90;;;;;;5452719;26;20010;-37
2024/04/15 05:11:01;;;;;;;15.30;2.58;;;10.40;99.90;;;;;;5452550;26;20006;-37
2024/04/15 05:13:27;;;;;;;8.05;2.00;;;10.40;99.90;;;;;;5452539;26;20026;-39
2024/04/15 05:16:03;;;;;;;11.40;2.22;;;10.40;99.90;;;;;;5452810;26;20414;-41
2024/04/15 05:18:29;;;;;;;6.97;1.80;;;10.40;99.90;;;;;;5458213;26;20396;-49
2024/04/15 05:20:54;;;;;;;8.73;2.55;;;10.40;99.90;;;;;;5479592;26;20010;-41
2024/04/15 05:23:20;;;;;;;13.73;3.00;;;10.40;99.90;;;;;;5484378;26;20006;-38
2024/04/15 05:25:45;;;;;;;6.32;2.08;;;10.30;99.90;;;;;;5486823;26;20365;-45
2024/04/15 05:28:11;;;;;;;7.55;2.63;;;10.30;99.90;;;;;;5488115;26;19998;-41
2024/04/15 05:30:37;;;;;;;5.60;2.17;;;10.30;99.90;;;;;;5488791;26;20346;-38
2024/04/15 05:33:02;;;;;;;12.10;2.25;;;10.30;99.90;;;;;;5486983;26;20005;-44
2024/04/15 05:35:28;;;;;;;5.53;1.85;;;10.30;99.90;;;;;;5486386;26;20034;-38
2024/04/15 05:37:54;;;;;;;8.18;2.20;;;10.30;99.90;;;;;;5480007;26;20536;-39
2024/04/15 05:40:19;;;;;;;17.88;2.55;;;10.30;99.90;;;;;;5452166;26;20002;-38
2024/04/15 05:42:45;;;;;;;7.15;2.92;;;10.30;99.90;;;;;;5452030;26;19999;-43
2024/04/15 05:45:11;;;;;;;13.30;2.25;;;10.30;99.90;;;;;;5452044;26;19999;-38
2024/04/15 05:47:36;;;;;;;11.88;2.83;;;10.30;99.90;;;;;;5476203;26;20071;-40
2024/04/15 05:50:02;;;;;;;10.80;1.73;;;10.30;99.90;;;;;;5488344;26;20013;-40
2024/04/15 05:52:28;;;;;;;6.30;1.70;;;10.40;99.90;;;;;;5487882;26;20459;-39
2024/04/15 05:54:53;;;;;;;12.05;2.03;;;10.40;99.90;;;;;;5487083;26;19998;-40
2024/04/15 05:57:19;;;;;;;6.65;1.88;;;10.50;99.90;;;;;;5488192;26;20005;-41
2024/04/15 05:59:44;;;;;;;4.88;1.80;;;10.50;99.90;;;;;;5488131;26;19994;-40
2024/04/15 06:02:10;;;;;;;12.40;1.75;;;10.50;99.90;;;;;;5488118;26;20006;-44
2024/04/15 06:04:35;;;;;;;8.90;1.60;;;10.50;99.90;;;;;;5487825;26;20461;-40
2024/04/15 06:07:04;;;;;;;7.85;1.30;;;10.60;99.90;;;;;;5486293;26;19998;-38
2024/04/15 06:09:31;;;;;;;12.30;2.40;;;10.60;99.90;;;;;;5487726;26;20066;-38
2024/04/15 06:11:56;;;;;;;6.13;1.15;;;10.70;99.90;;;;;;5486759;26;20404;-38
2024/04/15 06:14:22;;;;;;;5.00;1.48;;;10.70;99.90;;;;;;5487867;26;19995;-38
2024/04/15 06:17:07;;;;;;;7.68;1.35;;;10.70;99.90;;;;;;5487774;26;20023;-60
2024/04/15 06:19:33;;;;;;;14.70;2.28;;;10.80;99.90;;;;;;5478265;26;20497;-37
2024/04/15 06:22:00;;;;;;;7.28;1.55;;;10.80;99.90;;;;;;5461360;26;20002;-46
2024/04/15 06:24:26;;;;;;;5.47;1.50;;;10.80;99.90;;;;;;5488361;26;20041;-73
2024/04/15 06:26:52;;;;;;;5.85;1.42;;;10.80;99.90;;;;;;5487260;26;20450;-38
2024/04/15 06:29:18;;;;;;;9.52;1.90;;;10.90;99.90;;;;;;5473035;26;20006;-37
2024/04/15 06:31:43;;;;;;;8.10;1.88;;;11.00;99.90;;;;;;5449342;26;20488;-38
2024/04/15 06:34:09;;;;;;;3.67;1.17;;;11.00;99.90;;;;;;5451056;26;19999;-37
2024/04/15 06:36:35;;;;;;;4.63;1.05;;;11.10;99.90;;;;;;5451073;26;20031;-37
2024/04/15 06:39:01;;;;;;;7.88;2.08;;;11.10;99.90;;;;;;5463431;26;20002;-51
2024/04/15 06:41:27;;;;;;;8.15;1.27;;;11.30;99.90;;;;;;5490899;26;19998;-38
2024/04/15 06:43:52;;;;;;;7.68;1.30;;;11.40;99.90;;;;;;5490777;26;20443;-44
2024/04/15 06:46:18;;;;;;;5.72;1.35;;;11.60;99.90;;;;;;5490744;26;19998;-39
2024/04/15 06:48:43;;;;;;;8.27;1.33;;;11.70;99.90;;;;;;5476647;26;20009;-39
2024/04/15 06:51:10;;;;;;;7.53;1.88;;;11.70;99.90;;;;;;5454912;26;19999;-38
2024/04/15 06:53:36;;;;;;;4.68;1.00;;;11.60;99.90;;;;;;5454565;26;19999;-40
2024/04/15 06:56:02;;;;;;;4.25;0.95;;;11.70;99.90;;;;;;5454575;26;20359;-39
2024/04/15 06:58:28;;;;;;;12.10;1.50;;;11.70;99.90;;;;;;5454607;26;20006;-38
2024/04/15 07:00:56;;;;;;;5.10;1.02;;;11.70;99.90;;;;;;5466237;26;20043;-36
2024/04/15 07:03:23;;;;;;;3.42;1.23;;;11.80;99.90;;;;;;5490927;26;19998;-37
2024/04/15 07:05:48;;;;;;;6.65;1.40;;;11.70;99.90;;;;;;5489039;26;20439;-38
2024/04/15 07:08:14;;;;;;;1.98;1.08;;;11.60;99.90;;;;;;5490936;26;20005;-38
2024/04/15 07:10:40;;;;;;;6.68;1.58;;;11.60;99.90;;;;;;5490536;26;19998;-36
2024/04/15 07:13:06;;;;;;;8.15;1.20;;;11.60;99.90;;;;;;5490809;26;19998;-38
2024/04/15 07:15:32;;;;;;;7.72;1.25;;;11.70;99.90;;;;;;5490672;26;20461;-37
2024/04/15 07:17:59;;;;;;;11.27;1.73;;;11.70;99.90;;;;;;5490646;26;19994;-42
2024/04/15 07:20:25;;;;;;;2.75;1.17;;;11.80;99.90;;;;;;5458642;26;20479;-62
2024/04/15 07:22:50;;;;;;;5.68;1.10;;;11.80;99.90;;;;;;5487020;26;19995;-38
2024/04/15 07:25:16;;;;;;;15.23;1.75;;;11.80;99.90;;;;;;5454002;26;19998;-36
2024/04/15 07:27:42;;;;;;;7.43;1.27;;;11.80;99.90;;;;;;5454517;26;20035;-39
2024/04/15 07:30:08;;;;;;;10.50;2.25;;;11.80;99.90;;;;;;5454235;26;20332;-41
2024/04/15 07:32:34;;;;;;;4.00;1.33;;;11.80;99.90;;;;;;5454332;26;20512;-36
2024/04/15 07:35:00;;;;;;;5.97;2.55;;;11.80;99.90;;;;;;5468066;26;19998;-37
2024/04/15 07:37:25;;;;;;;3.78;1.17;;;11.80;99.90;;;;;;5458487;26;20330;-36
2024/04/15 07:39:51;;;;;;;6.20;1.35;;;11.80;99.90;;;;;;5490371;26;20000;-37
2024/04/15 07:42:17;;;;;;;14.63;2.08;;;11.80;99.90;;;;;;5490494;26;20009;-37
2024/04/15 07:44:46;;;;;;;11.23;1.90;;;11.90;99.90;;;;;;5490433;26;20074;-37
2024/04/15 07:47:12;;;;;;;6.03;2.85;;;11.90;99.90;;;;;;5488666;26;20071;-37
2024/04/15 07:49:38;;;;;;;6.63;1.63;;;11.90;99.90;;;;;;5489704;26;20006;-37
2024/04/15 07:52:04;;;;;;;7.80;2.15;;;11.80;99.90;;;;;;5479394;26;20012;-39
2024/04/15 07:54:30;;;;;;;7.70;1.65;;;11.90;99.90;;;;;;5488425;26;20466;-37
2024/04/15 07:56:56;;;;;;;7.35;2.47;;;11.90;99.90;;;;;;5487298;26;20009;-37
2024/04/15 07:59:21;;;;;;;10.15;1.80;;;11.90;99.90;;;;;;5490147;26;20507;-51
2024/04/15 08:01:47;;;;;;;6.20;1.50;;;11.80;99.90;;;;;;5489884;26;19998;-54
2024/04/15 08:04:12;;;;;;;13.75;2.35;;;11.80;99.90;;;;;;5489561;26;19994;-51
2024/04/15 08:06:38;;;;;;;3.80;2.72;;;11.70;99.90;;;;;;5489875;26;20335;-54
2024/04/15 08:09:04;;;;;;;9.15;2.50;;;11.70;99.90;;;;;;5489965;26;19994;-57
2024/04/15 08:11:29;;;;;;;6.90;1.98;;;11.80;99.90;;;;;;5489656;26;20002;-50
2024/04/15 08:13:55;;;;;;;11.85;1.95;;;11.80;99.90;;;;;;5489728;26;19995;-62
2024/04/15 08:16:21;;;;;;;10.70;2.30;;;11.80;99.90;;;;;;5489706;26;20346;-52
2024/04/15 08:18:50;;;;;;;4.65;2.40;;;11.80;99.90;;;;;;5488032;26;19994;-52
2024/04/15 08:21:15;;;;;;;7.90;1.77;;;11.80;99.90;;;;;;5455066;26;19999;-51
2024/04/15 08:23:41;;;;;;;6.05;1.70;;;11.90;99.90;;;;;;5484311;26;19994;-52
2024/04/15 08:26:07;;;;;;;4.85;1.95;;;11.90;99.90;;;;;;5489528;26;20348;-52
2024/04/15 08:28:33;;;;;;;4.05;1.45;;;11.90;99.90;;;;;;5489543;26;20457;-52
2024/04/15 08:30:59;;;;;;;8.68;2.22;;;11.90;99.90;;;;;;5487668;26;19994;-53
2024/04/15 08:33:25;;;;;;;5.15;1.77;;;11.90;99.90;;;;;;5488635;26;20005;-49
2024/04/15 08:35:50;;;;;;;3.90;1.65;;;11.90;99.90;;;;;;5487993;26;20002;-53
2024/04/15 08:38:16;;;;;;;15.27;2.47;;;11.90;99.90;;;;;;5489352;26;20358;-51
2024/04/15 08:40:52;;;;;;;10.82;1.67;;;12.00;99.90;;;;;;5489221;26;19998;-52
2024/04/15 08:43:24;;;;;;;18.10;3.08;;;12.10;99.90;;;;;;5489220;26;20454;-48
2024/04/15 08:46:13;;;;;;;4.78;1.83;;;12.20;99.90;;;;;;5489417;26;20058;-52
2024/04/15 08:48:40;;;;;;;9.10;1.73;;;12.40;99.90;;;;;;5489414;26;20451;-54
2024/04/15 08:51:07;;;;;;;9.05;1.40;;;12.50;99.90;;;;;;5479088;26;20007;-54
2024/04/15 08:53:33;;;;;;;2.05;0.98;;;12.60;99.90;;;;;;5452735;26;20009;-37
2024/04/15 08:55:58;;;;;;;4.45;1.10;;;12.60;99.90;;;;;;5452639;26;19998;-38
2024/04/15 08:58:24;;;;;;;11.98;1.60;;;12.60;99.90;;;;;;5452671;26;19999;-39
2024/04/15 09:00:51;;;;;;;9.10;1.70;;;12.70;99.90;;;;;;5478410;26;20316;-38
2024/04/15 09:03:17;;;;;;;9.25;1.25;;;12.80;99.90;;;;;;5488145;26;20100;-40
2024/04/15 09:05:43;;;;;;;12.63;1.73;;;12.80;99.90;;;;;;5489381;26;20036;-38
2024/04/15 09:08:09;;;;;;;8.00;1.45;;;12.60;99.90;;;;;;5489113;26;19998;-38
2024/04/15 09:10:35;;;;;;;2.55;1.05;;;12.50;99.90;;;;;;5488969;26;20060;-52
2024/04/15 09:13:01;;;;;;;7.22;2.28;;;12.50;99.90;;;;;;5489071;26;20014;-53
2024/04/15 09:15:27;;;;;;;10.75;1.20;;;12.40;99.90;;;;;;5489237;26;19994;-54
2024/04/15 09:17:56;;;;;;;3.90;1.50;;;12.40;99.90;;;;;;5488590;26;20002;-40
2024/04/15 09:20:22;;;;;;;9.73;1.55;;;12.30;99.90;;;;;;5468966;26;19995;-50
2024/04/15 09:22:47;;;;;;;13.30;1.83;;;12.20;99.90;;;;;;5488105;26;19998;-36
2024/04/15 09:25:14;;;;;;;9.73;2.65;;;12.30;99.90;;;;;;5488735;26;20067;-37
2024/04/15 09:27:40;;;;;;;10.77;2.63;;;12.30;99.90;;;;;;5488902;26;20074;-42
2024/04/15 09:30:07;;;;;;;4.55;1.35;;;12.20;99.90;;;;;;5489116;26;20396;-37
2024/04/15 09:32:35;;;;;;;11.00;1.98;;;12.10;99.90;;;;;;5488766;26;20334;-37
2024/04/15 09:35:03;;;;;;;10.40;1.63;;;12.10;99.90;;;;;;5488396;26;20010;-38
2024/04/15 09:37:31;;;;;;;10.48;1.50;;;12.20;99.90;;;;;;5488743;26;20004;-36
2024/04/15 09:39:57;;;;;;;11.85;1.52;;;12.30;99.90;;;;;;5488083;26;20005;-48
2024/04/15 09:42:24;;;;;;;6.88;1.40;;;12.40;99.90;;;;;;5488769;26;19999;-52
2024/04/15 09:44:50;;;;;;;7.70;1.10;;;12.70;99.90;;;;;;5488520;26;20335;-54
2024/04/15 09:47:17;;;;;;;2.03;1.02;;;12.80;99.90;;;;;;5488913;26;20446;-52
2024/04/15 09:49:46;;;;;;;8.98;1.35;;;12.70;99.90;;;;;;5488659;26;20435;-52
2024/04/15 09:52:29;;;;;;;2.58;1.13;;;12.60;99.90;;;;;;5482278;26;19998;-52
2024/04/15 09:55:04;;;;;;;6.30;1.25;;;12.50;99.90;;;;;;5486358;26;20560;-49
2024/04/15 09:57:33;;;;;;;9.70;1.27;;;12.40;99.90;;;;;;5488609;26;20034;-48
2024/04/15 10:00:02;;;;;;;8.75;1.92;;;12.30;99.90;;;;;;5488297;26;20009;-54
2024/04/15 10:02:43;;;;;;;8.15;2.13;;;12.20;99.90;;;;;;5488320;26;20483;-51
2024/04/15 10:05:22;;;;;;;2.20;1.10;;;12.00;99.90;;;;;;5488101;26;20013;-54
2024/04/15 10:07:57;;;;;;;9.43;1.40;;;11.90;99.90;;;;;;5487666;26;20063;-55
2024/04/15 10:10:26;;;;;;;9.88;1.60;;;11.80;99.90;;;;;;5488254;26;20079;-51
2024/04/15 10:13:00;;;;;;;6.38;2.17;;;11.80;99.90;;;;;;5489006;26;20013;-54
2024/04/15 10:15:26;;;;;;;12.90;1.73;;;11.80;99.90;;;;;;5491549;26;20062;-53
2024/04/15 10:17:58;;;;;;;5.22;1.80;;;11.80;99.90;;;;;;5468430;26;20067;-53
2024/04/15 10:20:34;;;;;;;15.65;3.67;;;11.80;99.90;;;;;;5454971;26;20569;-48
2024/04/15 10:23:04;;;;;;;7.75;1.83;;;11.90;99.90;;;;;;5454983;26;20493;-53
2024/04/15 10:25:36;;;;;;;18.38;2.50;;;12.00;99.90;;;;;;5475889;26;20026;-38
2024/04/15 10:28:05;;;;;;;13.65;2.90;;;12.10;99.90;;;;;;5467990;26;20039;-51
2024/04/15 10:30:32;;;;;;;7.68;2.00;;;12.10;99.90;;;;;;5455184;26;19998;-51
2024/04/15 10:33:07;;;;;;;15.93;2.10;;;12.00;99.90;;;;;;5453239;26;20332;-54
2024/04/15 10:35:37;;;;;;;4.10;1.83;;;11.90;99.90;;;;;;5455000;26;20071;-53
2024/04/15 10:38:05;;;;;;;6.55;2.15;;;11.80;99.90;;;;;;5454899;26;19998;-53
2024/04/15 10:40:38;;;;;;;6.65;2.00;;;11.60;99.90;;;;;;5454580;26;19999;-53
2024/04/15 10:43:05;;;;;;;6.00;1.83;;;11.40;99.90;;;;;;5483922;26;20017;-53
2024/04/15 10:45:32;;;;;;;9.75;2.80;;;11.30;99.90;;;;;;5489945;26;20013;-54
2024/04/15 10:47:58;;;;;;;3.63;1.70;;;11.00;99.90;;;;;;5491070;26;20002;-52
2024/04/15 10:50:24;;;;;;;8.55;1.80;;;10.80;99.90;;;;;;5489292;26;20012;-52
2024/04/15 10:52:50;;;;;;;7.50;1.80;;;10.70;99.90;;;;;;5491070;26;20069;-53
2024/04/15 10:55:16;;;;;;;6.20;1.90;;;10.50;99.90;;;;;;5491098;26;19995;-53
2024/04/15 10:57:42;;;;;;;10.35;2.70;;;10.30;99.90;;;;;;5491015;26;19998;-53
2024/04/15 11:00:13;;;;;;;6.15;2.10;;;10.20;99.90;;;;;;5490561;26;20338;-53
2024/04/15 11:02:46;;;;;;;6.07;2.22;;;10.10;99.90;;;;;;5456269;26;20447;-52
2024/04/15 11:05:12;;;;;;;9.40;2.35;;;10.00;99.90;;;;;;5487475;26;19994;-47
2024/04/15 11:07:39;;;;;;;7.18;2.20;;;9.90;99.90;;;;;;5489240;26;20400;-53
2024/04/15 11:10:07;;;;;;;5.95;2.17;;;9.80;99.90;;;;;;5489241;26;20503;-49
2024/04/15 11:12:33;;;;;;;6.75;2.15;;;9.80;99.90;;;;;;5491014;26;20431;-56
2024/04/15 11:14:59;;;;;;;10.10;2.67;;;9.70;99.90;;;;;;5489297;26;20001;-50
2024/04/15 11:17:25;;;;;;;10.63;2.40;;;9.60;99.90;;;;;;5489145;26;19994;-47
2024/04/15 11:20:01;;;;;;;10.85;2.53;;;9.60;99.90;;;;;;5454341;26;19998;-44
2024/04/15 11:22:27;;;;;;;8.90;2.88;;;9.50;99.90;;;;;;5454462;26;20033;-48
2024/04/15 11:24:53;;;;;;;6.97;2.50;;;9.60;99.90;;;;;;5456497;26;20031;-52
2024/04/15 11:27:39;;;;;;;8.93;2.70;;;9.90;99.90;;;;;;5490884;26;20451;-46
2024/04/15 11:30:06;;;;;;;6.60;2.95;;;10.10;99.90;;;;;;5490667;26;20453;-49
2024/04/15 11:32:33;;;;;;;7.13;2.35;;;10.10;99.90;;;;;;5490499;26;20362;-48
2024/04/15 11:34:59;;;;;;;9.18;2.95;;;10.00;99.90;;;;;;5480763;26;20485;-50
2024/04/15 11:37:25;;;;;;;4.97;2.20;;;9.90;99.90;;;;;;5457689;26;19994;-43
2024/04/15 11:39:51;;;;;;;10.18;2.35;;;9.90;99.90;;;;;;5490387;26;20002;-49
2024/04/15 11:42:17;;;;;;;6.05;2.25;;;9.90;99.90;;;;;;5490624;26;19994;-50
2024/04/15 11:44:43;;;;;;;7.28;2.28;;;9.90;99.90;;;;;;5490313;26;20515;-52
2024/04/15 11:47:13;;;;;;;10.57;2.60;;;9.80;99.90;;;;;;5490420;26;20384;-49
2024/04/15 11:49:39;;;;;;;10.90;1.92;;;9.80;99.90;;;;;;5490054;26;19999;-50
2024/04/15 11:52:06;;;;;;;5.97;2.10;;;9.80;99.90;;;;;;5466002;26;20010;-51
2024/04/15 11:54:31;;;;;;;6.38;2.33;;;9.80;99.90;;;;;;5453929;26;20002;-51
2024/04/15 11:56:58;;;;;;;9.65;1.80;;;9.80;99.90;;;;;;5453758;26;20003;-53
2024/04/15 11:59:24;;;;;;;4.82;1.40;;;10.00;99.90;;;;;;5453911;26;20401;-54
2024/04/15 12:01:54;;;;;;;6.32;1.90;;;10.00;99.90;;;;;;5451689;26;19999;-62
2024/04/15 12:04:20;;;;;;;11.27;2.03;;;10.00;99.90;;;;;;5475081;26;19998;-52
2024/04/15 12:06:45;;;;;;;4.05;2.17;;;10.10;99.90;;;;;;5489826;26;20024;-52
2024/04/15 12:09:12;;;;;;;7.57;3.30;;;10.30;99.90;;;;;;5477309;26;20007;-53
2024/04/15 12:11:37;;;;;;;7.50;2.20;;;10.40;99.90;;;;;;5457897;26;20443;-52
2024/04/15 12:14:03;;;;;;;2.97;1.33;;;10.40;99.90;;;;;;5488049;26;20013;-53
2024/04/15 12:16:29;;;;;;;19.88;2.08;;;10.40;99.90;;;;;;5489874;26;19998;-50
2024/04/15 12:18:54;;;;;;;2.67;1.50;;;10.40;99.90;;;;;;5481550;26;20372;-53
2024/04/15 12:21:20;;;;;;;10.75;2.10;;;10.40;99.90;;;;;;5456993;26;20006;-64
2024/04/15 12:23:45;;;;;;;2.63;1.42;;;10.40;99.90;;;;;;5489298;26;20002;-50
2024/04/15 12:26:11;;;;;;;6.50;1.55;;;10.30;99.90;;;;;;5476333;26;20036;-39
2024/04/15 12:28:37;;;;;;;3.00;1.48;;;10.20;99.90;;;;;;5453683;26;19995;-37
2024/04/15 12:31:02;;;;;;;7.35;1.77;;;10.10;99.90;;;;;;5472529;26;20006;-53
2024/04/15 12:33:28;;;;;;;8.00;2.97;;;10.00;99.90;;;;;;5489498;26;20407;-54
2024/04/15 12:35:54;;;;;;;4.18;0.70;;;9.90;99.90;;;;;;5489046;26;20339;-55
2024/04/15 12:38:20;;;;;;;8.40;0.70;;;9.00;99.90;;;;;;5488773;26;20070;-52
2024/04/15 12:40:46;;;;;;;2.33;0.43;;;8.00;99.90;;;;;;5489351;26;20465;-35
2024/04/15 12:43:12;;;;;;;0.20;0.20;;;7.30;99.90;;;;;;5476478;26;20000;-37